Time;durP1;ratioP1;P1;durP2;ratioP2;P2;SDS_P1;SDS_P2;PMS_P1;PMS_P2;Temp;Humidity;BMP_temperature;BMP_pressure;BME280_temperature;BME280_humidity;BME280_pressure;Samples;Min_cycle;Max_cycle;Signal;HPM_P1;HPM_P2
2022/05/25 00:01:24;;;;;;;5.00;2.50;;;11.90;75.20;;;;;;5029453;28;20393;-81
2022/05/25 00:03:50;;;;;;;6.15;2.75;;;11.90;75.60;;;;;;5026937;28;20389;-83
2022/05/25 00:06:22;;;;;;;6.50;2.30;;;12.00;74.30;;;;;;5025149;28;20417;-81
2022/05/25 00:08:47;;;;;;;5.63;2.55;;;12.00;72.80;;;;;;5027415;28;20404;-83
2022/05/25 00:11:13;;;;;;;9.13;2.47;;;11.90;73.80;;;;;;5028483;28;20443;-82
2022/05/25 00:13:38;;;;;;;4.07;2.42;;;11.80;75.20;;;;;;5026155;28;20496;-83
2022/05/25 00:16:04;;;;;;;4.43;2.70;;;11.70;75.90;;;;;;5025162;28;20412;-82
2022/05/25 00:22:52;;;;;;;5.32;2.40;;;11.50;78.90;;;;;;5020190;28;20431;-82
2022/05/25 00:25:37;;;;;;;4.88;2.30;;;11.50;80.10;;;;;;5008497;28;20396;-84
2022/05/25 00:28:09;;;;;;;4.30;2.75;;;11.50;81.60;;;;;;5021604;28;20384;-85
2022/05/25 00:30:46;;;;;;;6.00;2.38;;;11.50;82.10;;;;;;5021234;28;20794;-83
2022/05/25 00:33:17;;;;;;;4.38;2.22;;;11.40;82.90;;;;;;5037703;28;20400;-85
2022/05/25 00:35:59;;;;;;;6.30;2.30;;;11.30;83.70;;;;;;5008693;28;20413;-81
2022/05/25 00:38:28;;;;;;;5.83;2.90;;;11.30;84.80;;;;;;5551967;23;20427;-83
2022/05/25 00:41:58;;;;;;;6.10;2.90;;;11.20;86.50;;;;;;5046229;28;20403;-85
2022/05/25 00:55:14;;;;;;;4.57;2.80;;;11.20;89.20;;;;;;5051345;23;20502;-78
2022/05/25 00:57:43;;;;;;;9.23;3.05;;;11.10;90.70;;;;;;5041438;28;20417;-79
2022/05/25 01:00:18;;;;;;;5.82;2.90;;;11.20;91.60;;;;;;5039312;28;20406;-78
2022/05/25 01:02:48;;;;;;;4.53;3.05;;;11.20;92.50;;;;;;5041202;28;20379;-78
2022/05/25 01:05:19;;;;;;;4.20;3.38;;;11.20;93.70;;;;;;5039553;28;20644;-79
2022/05/25 01:07:48;;;;;;;5.78;3.70;;;11.20;93.00;;;;;;5043501;28;20415;-78
2022/05/25 01:10:32;;;;;;;8.63;4.10;;;11.20;93.50;;;;;;5046059;28;20470;-78
2022/05/25 01:13:25;;;;;;;6.93;3.72;;;11.20;94.40;;;;;;5045950;28;20451;-76
2022/05/25 01:15:54;;;;;;;6.88;4.00;;;11.20;95.20;;;;;;5051927;28;20402;-77
2022/05/25 01:18:46;;;;;;;6.25;3.85;;;11.20;96.20;;;;;;5037581;28;20421;-78
2022/05/25 01:21:42;;;;;;;6.53;4.00;;;11.20;96.90;;;;;;5053663;28;20406;-77
2022/05/25 01:24:25;;;;;;;7.57;4.10;;;11.20;98.50;;;;;;5049173;28;20649;-80
2022/05/25 01:27:03;;;;;;;7.43;4.20;;;11.20;99.90;;;;;;5039035;28;20387;-81
2022/05/25 01:29:51;;;;;;;7.13;4.80;;;11.10;99.90;;;;;;5038027;28;20429;-80
2022/05/25 01:32:40;;;;;;;8.30;4.75;;;11.10;99.90;;;;;;5037793;28;20410;-78
2022/05/25 01:35:39;;;;;;;7.00;4.20;;;11.20;99.90;;;;;;5037712;28;20418;-80
2022/05/25 01:38:14;;;;;;;6.63;5.00;;;11.10;99.90;;;;;;5042951;28;20451;-78
2022/05/25 01:40:50;;;;;;;10.95;4.80;;;11.10;99.90;;;;;;5043138;28;20446;-78
2022/05/25 01:43:24;;;;;;;6.47;5.00;;;11.10;99.90;;;;;;5041768;28;20444;-79
2022/05/25 01:45:55;;;;;;;8.48;4.93;;;11.10;99.90;;;;;;5048911;28;20533;-77
2022/05/25 01:48:23;;;;;;;10.15;5.20;;;11.20;99.90;;;;;;5052392;28;20379;-78
2022/05/25 01:51:00;;;;;;;9.13;5.03;;;11.10;99.90;;;;;;5053712;28;20410;-80
2022/05/25 01:53:34;;;;;;;8.60;5.40;;;11.10;99.90;;;;;;5052865;28;20386;-78
2022/05/25 01:56:05;;;;;;;9.35;5.40;;;11.00;99.90;;;;;;5050643;28;20407;-77
2022/05/25 01:58:36;;;;;;;9.95;5.50;;;11.00;99.90;;;;;;5051489;28;20379;-78
2022/05/25 02:01:03;;;;;;;8.27;5.70;;;11.00;99.90;;;;;;5053268;28;20406;-78
2022/05/25 02:06:29;;;;;;;10.75;5.80;;;10.90;99.90;;;;;;5052070;28;20418;-78
2022/05/25 02:09:12;;;;;;;9.57;5.82;;;10.90;99.90;;;;;;5047954;28;20481;-78
2022/05/25 02:11:55;;;;;;;12.25;6.22;;;10.90;99.90;;;;;;5043078;28;20406;-79
2022/05/25 02:14:41;;;;;;;8.93;6.18;;;10.90;99.90;;;;;;5045992;28;20557;-78
2022/05/25 02:17:29;;;;;;;9.57;6.60;;;10.90;99.90;;;;;;5044296;28;20413;-80
2022/05/25 02:20:21;;;;;;;10.55;6.30;;;10.80;99.90;;;;;;5042526;28;20391;-80
2022/05/25 02:22:51;;;;;;;12.70;6.40;;;10.80;99.90;;;;;;5044414;28;20414;-79
2022/05/25 02:25:29;;;;;;;10.10;6.03;;;10.80;99.90;;;;;;5038388;28;20753;-80
2022/05/25 02:27:58;;;;;;;9.32;6.40;;;10.80;99.90;;;;;;5042632;28;20394;-79
2022/05/25 02:30:25;;;;;;;7.95;6.40;;;10.80;99.90;;;;;;5042523;28;20413;-80
2022/05/25 02:33:03;;;;;;;13.38;6.35;;;10.70;99.90;;;;;;5047940;28;20382;-79
2022/05/25 02:35:30;;;;;;;8.80;6.03;;;10.60;99.90;;;;;;5051318;28;20426;-79
2022/05/25 02:38:04;;;;;;;9.95;5.97;;;10.60;99.90;;;;;;5054347;28;20379;-80
2022/05/25 02:40:32;;;;;;;13.70;6.90;;;10.60;99.90;;;;;;5044134;28;20477;-80
2022/05/25 02:42:58;;;;;;;11.15;6.30;;;10.60;99.90;;;;;;5041258;28;20395;-79
2022/05/25 02:45:23;;;;;;;11.50;6.53;;;10.60;99.90;;;;;;5040892;28;20417;-79
2022/05/25 02:47:50;;;;;;;9.70;6.63;;;10.50;99.90;;;;;;5043099;28;20402;-80
2022/05/25 02:50:16;;;;;;;9.75;6.45;;;10.50;99.90;;;;;;5049810;28;20437;-78
2022/05/25 02:52:42;;;;;;;9.70;6.40;;;10.50;99.90;;;;;;5053114;28;20375;-79
2022/05/25 02:55:08;;;;;;;10.20;5.80;;;10.50;99.90;;;;;;5052571;28;20445;-77
2022/05/25 02:57:33;;;;;;;12.13;6.30;;;10.50;99.90;;;;;;5051434;28;20387;-78
2022/05/25 02:59:59;;;;;;;11.18;6.80;;;10.50;99.90;;;;;;5048813;28;20399;-77
2022/05/25 03:02:25;;;;;;;9.17;6.40;;;10.40;99.90;;;;;;5045357;28;20410;-78
2022/05/25 03:04:51;;;;;;;8.68;6.68;;;10.30;99.90;;;;;;5045787;28;20459;-79
2022/05/25 03:07:17;;;;;;;10.60;6.90;;;10.30;99.90;;;;;;5048490;28;20729;-78
2022/05/25 03:09:43;;;;;;;9.85;6.50;;;10.30;99.90;;;;;;5048845;28;20398;-79
2022/05/25 03:12:09;;;;;;;13.57;6.77;;;10.30;99.90;;;;;;5049162;28;20811;-78
2022/05/25 03:14:36;;;;;;;14.73;7.10;;;10.40;99.90;;;;;;5051104;28;20445;-80
2022/05/25 03:17:12;;;;;;;8.70;6.10;;;10.30;99.90;;;;;;5049768;28;20383;-79
2022/05/25 03:19:42;;;;;;;9.30;6.68;;;10.30;99.90;;;;;;5049364;28;20406;-77
2022/05/25 03:22:08;;;;;;;11.43;6.45;;;10.30;99.90;;;;;;5049159;28;20473;-78
2022/05/25 03:24:34;;;;;;;11.27;6.10;;;10.40;99.90;;;;;;5051427;28;20457;-81
2022/05/25 03:27:00;;;;;;;10.32;6.35;;;10.40;99.90;;;;;;5049748;28;20391;-80
2022/05/25 03:29:26;;;;;;;12.15;6.80;;;10.50;99.90;;;;;;5049673;28;20412;-80
2022/05/25 03:31:53;;;;;;;10.43;6.80;;;10.50;99.90;;;;;;5048215;28;20415;-80
2022/05/25 03:34:19;;;;;;;10.57;6.57;;;10.50;99.90;;;;;;5049717;28;20459;-80
2022/05/25 03:36:45;;;;;;;11.70;6.50;;;10.50;99.90;;;;;;5050543;28;20476;-80
2022/05/25 03:39:11;;;;;;;12.73;6.28;;;10.50;99.90;;;;;;5051741;28;20406;-78
2022/05/25 03:41:36;;;;;;;13.60;6.63;;;10.60;99.90;;;;;;5051190;28;20390;-78
2022/05/25 03:44:03;;;;;;;12.60;7.00;;;10.50;99.90;;;;;;5048223;28;20411;-78
2022/05/25 03:46:28;;;;;;;7.82;5.70;;;10.60;99.90;;;;;;5047242;28;20421;-79
2022/05/25 03:48:54;;;;;;;8.80;6.10;;;10.70;99.90;;;;;;5047237;28;20395;-77
2022/05/25 03:51:19;;;;;;;8.55;6.10;;;10.70;99.90;;;;;;5045016;28;20418;-78
2022/05/25 03:53:46;;;;;;;11.90;6.13;;;10.70;99.90;;;;;;5044340;28;20485;-79
2022/05/25 03:56:11;;;;;;;11.88;6.05;;;10.70;99.90;;;;;;5044888;28;20470;-80
2022/05/25 03:58:37;;;;;;;10.53;5.73;;;10.80;99.90;;;;;;5042355;28;20383;-82
2022/05/25 04:01:03;;;;;;;10.30;6.20;;;10.80;99.90;;;;;;5040435;28;20391;-80
2022/05/25 04:03:28;;;;;;;12.23;5.97;;;10.90;99.90;;;;;;5038621;28;20467;-80
2022/05/25 04:05:54;;;;;;;7.87;5.73;;;11.10;99.90;;;;;;5039903;28;20892;-80
2022/05/25 04:08:20;;;;;;;9.50;6.07;;;11.40;93.90;;;;;;5042460;28;20383;-79
2022/05/25 04:10:46;;;;;;;12.10;6.00;;;11.60;90.80;;;;;;5038703;28;20776;-78
2022/05/25 04:13:11;;;;;;;10.38;5.93;;;11.70;85.40;;;;;;5040162;28;20391;-80
2022/05/25 04:15:37;;;;;;;10.27;6.20;;;11.80;81.30;;;;;;5040985;28;20387;-81
2022/05/25 04:18:03;;;;;;;9.10;5.90;;;12.00;77.60;;;;;;5040537;28;20393;-80
2022/05/25 04:20:30;;;;;;;12.52;5.90;;;12.00;75.50;;;;;;5038292;28;20422;-79
2022/05/25 04:22:56;;;;;;;8.05;5.80;;;12.10;71.10;;;;;;5035290;28;20391;-79
2022/05/25 04:25:24;;;;;;;8.00;5.00;;;12.10;69.90;;;;;;5038328;28;20875;-79
2022/05/25 04:27:51;;;;;;;8.90;5.57;;;12.10;69.10;;;;;;5039635;28;20776;-79
2022/05/25 04:30:20;;;;;;;12.48;5.75;;;12.00;71.00;;;;;;5041059;28;20413;-79
2022/05/25 04:32:46;;;;;;;11.93;5.78;;;11.90;69.80;;;;;;5036874;28;20407;-79
2022/05/25 04:35:13;;;;;;;10.30;5.77;;;11.90;69.50;;;;;;5034826;28;20866;-80
2022/05/25 04:37:55;;;;;;;15.38;6.15;;;12.00;68.10;;;;;;5036826;28;20418;-80
2022/05/25 04:40:38;;;;;;;8.60;5.55;;;12.00;68.30;;;;;;5019203;28;20397;-81
2022/05/25 04:43:12;;;;;;;12.00;5.90;;;12.10;66.60;;;;;;5028458;28;20469;-79
2022/05/25 04:45:39;;;;;;;14.88;6.45;;;12.20;64.90;;;;;;5034399;28;20470;-78
2022/05/25 04:48:05;;;;;;;10.90;6.15;;;12.30;62.30;;;;;;5049915;28;20399;-80
2022/05/25 04:50:34;;;;;;;13.88;5.80;;;12.30;62.80;;;;;;5043507;28;20413;-78
2022/05/25 04:53:01;;;;;;;10.05;5.38;;;12.40;62.50;;;;;;5036732;28;20399;-81
2022/05/25 04:58:22;;;;;;;16.40;6.50;;;12.40;64.30;;;;;;5047929;28;20389;-80
2022/05/25 05:00:48;;;;;;;10.55;5.38;;;12.50;60.50;;;;;;5041589;28;20405;-80
2022/05/25 05:03:15;;;;;;;12.30;5.10;;;12.50;60.30;;;;;;5039506;28;20414;-79
2022/05/25 05:05:40;;;;;;;15.88;5.10;;;12.60;57.90;;;;;;5039733;28;20398;-81
2022/05/25 05:08:07;;;;;;;11.38;4.90;;;12.70;57.40;;;;;;5047266;28;20399;-79
2022/05/25 05:10:33;;;;;;;12.97;5.70;;;12.70;56.30;;;;;;5045524;28;20783;-82
2022/05/25 05:13:04;;;;;;;9.98;5.30;;;12.70;56.00;;;;;;5034000;28;20418;-82
2022/05/25 05:15:36;;;;;;;9.27;4.80;;;12.80;55.70;;;;;;5048060;28;20448;-81
2022/05/25 05:18:02;;;;;;;13.13;5.15;;;12.80;54.80;;;;;;5047911;28;20398;-78
2022/05/25 05:20:29;;;;;;;10.90;5.40;;;12.90;54.50;;;;;;5040720;28;20391;-81
2022/05/25 05:22:54;;;;;;;10.30;5.18;;;12.90;54.30;;;;;;5032151;28;20424;-80
2022/05/25 05:25:20;;;;;;;11.85;5.32;;;13.00;53.60;;;;;;5029747;28;20409;-79
2022/05/25 05:27:46;;;;;;;9.60;5.25;;;13.00;52.70;;;;;;5034605;28;20387;-78
2022/05/25 05:30:15;;;;;;;11.53;4.90;;;13.00;53.70;;;;;;5032507;28;20415;-75
2022/05/25 05:32:40;;;;;;;14.52;5.00;;;13.10;52.90;;;;;;5028321;28;20416;-76
2022/05/25 05:35:06;;;;;;;13.60;4.50;;;13.20;51.50;;;;;;5034006;28;20414;-78
2022/05/25 05:37:40;;;;;;;14.32;5.57;;;13.20;51.70;;;;;;5039616;28;20394;-78
2022/05/25 05:40:08;;;;;;;11.75;4.65;;;13.20;50.20;;;;;;5031050;28;20407;-76
2022/05/25 05:42:38;;;;;;;10.57;5.70;;;13.20;50.10;;;;;;5023496;28;20406;-75
2022/05/25 05:45:16;;;;;;;14.65;5.50;;;13.30;50.90;;;;;;5027457;28;20395;-77
2022/05/25 05:47:56;;;;;;;13.23;6.35;;;13.30;50.40;;;;;;5031943;28;20800;-78
2022/05/25 05:50:24;;;;;;;9.25;4.90;;;13.40;49.90;;;;;;5015208;28;20928;-77
2022/05/25 05:52:51;;;;;;;10.05;5.72;;;13.40;48.80;;;;;;5021127;28;20503;-76
2022/05/25 05:55:18;;;;;;;10.55;5.90;;;13.40;48.60;;;;;;5029525;28;20958;-76
2022/05/25 05:57:44;;;;;;;12.63;5.50;;;13.50;49.10;;;;;;5030514;28;20399;-75
2022/05/25 06:00:11;;;;;;;14.88;5.20;;;13.50;48.70;;;;;;5030411;28;20388;-74
2022/05/25 06:02:37;;;;;;;9.05;4.70;;;13.50;47.80;;;;;;5025284;28;20438;-75
2022/05/25 06:05:03;;;;;;;18.50;5.33;;;13.60;46.70;;;;;;5029011;28;20407;-76
2022/05/25 06:07:29;;;;;;;12.82;5.47;;;13.60;47.80;;;;;;5029890;28;20815;-77
2022/05/25 06:09:56;;;;;;;12.77;5.30;;;13.70;47.70;;;;;;5030180;28;20403;-76
2022/05/25 06:12:22;;;;;;;13.37;5.40;;;13.70;47.80;;;;;;5027054;28;20399;-78
2022/05/25 06:14:48;;;;;;;10.70;4.72;;;13.80;46.80;;;;;;5027404;28;20403;-73
2022/05/25 06:19:58;;;;;;;10.60;4.93;;;14.10;43.90;;;;;;5034153;28;20793;-75
2022/05/25 06:22:23;;;;;;;8.85;4.55;;;14.10;44.80;;;;;;5021724;28;20411;-74
2022/05/25 06:24:51;;;;;;;10.02;4.60;;;14.30;41.60;;;;;;5031107;28;20399;-74
2022/05/25 06:27:18;;;;;;;10.50;5.10;;;14.30;39.80;;;;;;5012729;28;20895;-76
2022/05/25 06:29:48;;;;;;;10.00;4.45;;;14.30;39.70;;;;;;5029901;28;20744;-76
2022/05/25 06:32:17;;;;;;;10.95;4.30;;;14.30;40.50;;;;;;5036901;28;20426;-77
2022/05/25 06:34:47;;;;;;;13.15;4.82;;;14.20;40.60;;;;;;5030526;28;20588;-76
2022/05/25 06:37:16;;;;;;;8.57;4.32;;;14.20;40.80;;;;;;5024683;28;20391;-76
2022/05/25 06:39:42;;;;;;;10.70;4.05;;;14.30;40.00;;;;;;5030563;28;20551;-76
2022/05/25 06:42:08;;;;;;;6.45;3.67;;;14.30;39.80;;;;;;5026071;28;20490;-75
2022/05/25 06:44:33;;;;;;;8.77;4.40;;;14.40;40.00;;;;;;5025512;28;20406;-73
2022/05/25 06:46:59;;;;;;;17.13;4.63;;;14.40;39.40;;;;;;5030626;28;20411;-78
2022/05/25 06:49:25;;;;;;;13.43;4.90;;;14.50;39.50;;;;;;5030578;28;20408;-75
2022/05/25 06:51:51;;;;;;;11.53;3.67;;;14.50;39.50;;;;;;5030889;28;20413;-76
2022/05/25 06:54:18;;;;;;;9.57;4.03;;;14.60;38.20;;;;;;5023792;28;20739;-77
2022/05/25 06:56:44;;;;;;;9.77;3.30;;;14.70;37.70;;;;;;5031533;28;20751;-77
2022/05/25 06:59:10;;;;;;;9.93;3.60;;;14.80;37.10;;;;;;5022293;28;20437;-77
2022/05/25 07:01:38;;;;;;;12.75;3.45;;;14.80;36.20;;;;;;5035423;28;20412;-77
2022/05/25 07:04:05;;;;;;;7.82;3.50;;;14.80;35.60;;;;;;5034670;28;20453;-77
2022/05/25 07:06:31;;;;;;;11.23;3.55;;;14.80;35.20;;;;;;5035333;28;20442;-77
2022/05/25 07:08:57;;;;;;;7.25;3.65;;;14.80;35.90;;;;;;5034082;28;20434;-79
2022/05/25 07:11:23;;;;;;;10.80;3.87;;;14.80;36.20;;;;;;5027242;28;20407;-78
2022/05/25 07:13:50;;;;;;;13.75;4.55;;;14.90;36.00;;;;;;5032293;28;20457;-76
2022/05/25 07:16:18;;;;;;;9.68;3.50;;;15.00;35.60;;;;;;5034165;28;20969;-77
2022/05/25 07:18:45;;;;;;;11.82;4.10;;;15.10;34.50;;;;;;5025380;28;20401;-75
2022/05/25 07:21:12;;;;;;;13.43;4.07;;;15.10;35.00;;;;;;5025962;28;20736;-77
2022/05/25 07:23:39;;;;;;;12.83;3.90;;;15.30;34.40;;;;;;5034477;28;20407;-76
2022/05/25 07:26:06;;;;;;;7.72;3.20;;;15.40;32.40;;;;;;5034755;28;20411;-77
2022/05/25 07:28:33;;;;;;;10.40;3.72;;;15.40;33.50;;;;;;5038114;28;20406;-76
2022/05/25 07:31:13;;;;;;;8.10;2.83;;;15.40;31.80;;;;;;5031058;28;20433;-75
2022/05/25 07:33:42;;;;;;;12.30;3.55;;;15.50;31.50;;;;;;5027435;28;20814;-76
2022/05/25 07:36:10;;;;;;;5.07;2.60;;;15.60;31.50;;;;;;5031668;28;20493;-76
2022/05/25 07:38:38;;;;;;;6.43;2.58;;;15.70;30.10;;;;;;5033187;28;20399;-79
2022/05/25 07:41:03;;;;;;;6.60;2.40;;;15.70;30.00;;;;;;5030257;28;20457;-77
2022/05/25 07:43:32;;;;;;;5.38;2.47;;;15.70;30.20;;;;;;5026729;28;20412;-75
2022/05/25 07:45:58;;;;;;;7.13;1.98;;;15.70;28.80;;;;;;5027421;28;20933;-77
2022/05/25 07:48:24;;;;;;;4.97;1.90;;;15.80;28.20;;;;;;5028120;28;20438;-78
2022/05/25 07:50:49;;;;;;;5.33;1.70;;;15.80;27.60;;;;;;5024889;28;20411;-77
2022/05/25 07:56:00;;;;;;;4.72;1.50;;;15.90;26.70;;;;;;5033076;28;20949;-77
2022/05/25 07:58:26;;;;;;;2.40;1.60;;;15.90;27.20;;;;;;5026613;28;20911;-77
2022/05/25 08:00:54;;;;;;;2.28;1.45;;;15.80;28.30;;;;;;5027907;28;20738;-74
2022/05/25 08:06:05;;;;;;;2.33;1.60;;;16.10;28.50;;;;;;5029765;28;20464;-75
2022/05/25 08:08:31;;;;;;;3.67;1.88;;;16.20;26.90;;;;;;5030943;28;20395;-77
2022/05/25 08:11:06;;;;;;;3.92;1.50;;;16.30;25.90;;;;;;5032367;28;20403;-77
2022/05/25 08:13:35;;;;;;;5.72;2.35;;;16.40;24.60;;;;;;5034096;28;20405;-78
2022/05/25 08:16:02;;;;;;;43.63;11.52;;;16.50;24.10;;;;;;5031391;28;20938;-77
2022/05/25 08:18:27;;;;;;;14.93;4.03;;;16.60;24.90;;;;;;5033751;28;20828;-77
2022/05/25 08:20:53;;;;;;;5.40;1.73;;;16.70;24.10;;;;;;5032830;28;20410;-78
2022/05/25 08:23:18;;;;;;;6.22;1.70;;;16.70;22.60;;;;;;5033503;28;20432;-78
2022/05/25 08:25:45;;;;;;;2.63;1.60;;;16.70;23.10;;;;;;5033200;28;20422;-78
2022/05/25 08:28:11;;;;;;;7.65;2.60;;;16.70;22.10;;;;;;5034161;28;20383;-78
2022/05/25 08:30:39;;;;;;;14.73;3.37;;;16.80;22.60;;;;;;5033004;28;20398;-78
2022/05/25 08:33:05;;;;;;;4.13;1.30;;;16.80;21.70;;;;;;5032825;28;20441;-77
2022/05/25 08:35:31;;;;;;;2.65;1.00;;;16.80;19.80;;;;;;5036082;28;20391;-78
2022/05/25 08:37:58;;;;;;;4.67;1.47;;;16.90;21.60;;;;;;5039530;28;20509;-77
2022/05/25 08:40:25;;;;;;;2.50;1.60;;;17.10;20.00;;;;;;5035678;28;20383;-78
2022/05/25 08:42:57;;;;;;;3.00;1.60;;;17.10;20.30;;;;;;5038871;28;20790;-77
2022/05/25 08:45:27;;;;;;;3.90;1.20;;;17.10;20.10;;;;;;5037529;28;20452;-76
2022/05/25 08:47:57;;;;;;;3.80;1.30;;;17.10;19.90;;;;;;5036847;28;20411;-77
2022/05/25 08:50:23;;;;;;;3.95;1.15;;;17.10;19.50;;;;;;5035549;28;20440;-77
2022/05/25 08:52:48;;;;;;;4.55;1.15;;;17.10;19.30;;;;;;5036814;28;20465;-77
2022/05/25 08:55:40;;;;;;;3.75;1.08;;;17.20;18.50;;;;;;5036763;28;20454;-77
2022/05/25 08:58:08;;;;;;;1.20;0.98;;;17.30;18.00;;;;;;5037135;28;20470;-77
2022/05/25 09:00:34;;;;;;;3.60;1.02;;;17.40;18.90;;;;;;5037338;28;20383;-77
2022/05/25 09:03:28;;;;;;;3.08;1.00;;;17.60;18.30;;;;;;5032354;28;20467;-77
2022/05/25 09:06:20;;;;;;;2.70;1.20;;;17.70;18.30;;;;;;5037276;28;20387;-77
2022/05/25 09:09:03;;;;;;;2.00;1.33;;;17.80;17.80;;;;;;5037703;28;20822;-77
2022/05/25 09:11:45;;;;;;;2.97;1.00;;;17.80;18.80;;;;;;5034632;28;20417;-78
2022/05/25 09:14:37;;;;;;;3.30;1.30;;;17.90;18.20;;;;;;5034783;28;20387;-78
2022/05/25 09:17:11;;;;;;;2.70;1.10;;;18.10;17.80;;;;;;5034508;28;20383;-78
2022/05/25 09:19:41;;;;;;;2.63;1.15;;;18.40;17.30;;;;;;5037016;28;20383;-78
2022/05/25 09:22:10;;;;;;;5.20;1.10;;;18.40;16.90;;;;;;5034775;28;20510;-78
2022/05/25 09:24:36;;;;;;;3.00;1.20;;;18.60;16.20;;;;;;5035788;28;20387;-78
2022/05/25 09:27:06;;;;;;;2.22;1.17;;;18.70;15.70;;;;;;5035662;28;20383;-78
2022/05/25 09:29:32;;;;;;;4.75;1.00;;;18.80;16.10;;;;;;5035916;28;20387;-76
2022/05/25 09:32:25;;;;;;;5.63;1.30;;;18.80;15.80;;;;;;5033414;28;20414;-77
2022/05/25 09:35:01;;;;;;;3.40;1.30;;;18.70;15.60;;;;;;5032656;28;20390;-76
2022/05/25 09:37:53;;;;;;;1.80;1.00;;;18.60;16.00;;;;;;5033072;28;20378;-79
2022/05/25 09:40:30;;;;;;;3.58;1.10;;;18.50;15.10;;;;;;5031342;28;20879;-77
2022/05/25 09:42:57;;;;;;;1.80;1.00;;;18.20;15.30;;;;;;5030454;28;20402;-77
2022/05/25 09:45:40;;;;;;;3.17;1.30;;;18.00;16.50;;;;;;5031515;28;20902;-78
2022/05/25 09:48:26;;;;;;;5.70;1.75;;;18.20;17.20;;;;;;5031620;28;20441;-77
2022/05/25 09:50:55;;;;;;;3.30;1.40;;;18.30;16.00;;;;;;5031653;28;20413;-78
2022/05/25 09:53:24;;;;;;;2.20;1.40;;;18.40;15.50;;;;;;5029693;28;20445;-77
2022/05/25 09:56:03;;;;;;;4.20;1.30;;;18.50;15.50;;;;;;5031324;28;20397;-78
2022/05/25 09:58:37;;;;;;;1.70;1.20;;;18.50;14.60;;;;;;5031611;28;20444;-78
2022/05/25 10:01:15;;;;;;;3.72;1.10;;;18.30;15.50;;;;;;5030711;28;20918;-76
2022/05/25 10:03:43;;;;;;;2.35;1.33;;;18.20;16.00;;;;;;5031093;28;20422;-77
2022/05/25 10:06:25;;;;;;;3.40;1.50;;;18.20;16.70;;;;;;5031148;28;20429;-76
2022/05/25 10:09:13;;;;;;;6.00;1.50;;;18.20;16.40;;;;;;5032183;28;20384;-77
2022/05/25 10:11:59;;;;;;;3.20;1.27;;;18.40;16.30;;;;;;5033860;28;20438;-77
2022/05/25 10:14:35;;;;;;;2.85;1.48;;;18.50;15.90;;;;;;5035454;28;20387;-77
2022/05/25 10:17:05;;;;;;;4.13;1.40;;;18.60;16.10;;;;;;5035444;28;20383;-79
2022/05/25 10:19:34;;;;;;;4.20;1.40;;;18.70;14.80;;;;;;5034463;28;20387;-77
2022/05/25 10:22:00;;;;;;;4.60;1.55;;;18.90;15.60;;;;;;5035514;28;20391;-78
2022/05/25 10:24:41;;;;;;;4.28;1.33;;;19.10;13.70;;;;;;5038828;28;20740;-78
2022/05/25 10:27:27;;;;;;;6.20;1.40;;;19.30;14.10;;;;;;5038219;28;20395;-78
2022/05/25 10:38:39;;;;;;;2.70;1.10;;;20.00;11.70;;;;;;5039712;28;20382;-78
2022/05/25 10:44:05;;;;;;;2.03;1.02;;;19.80;12.20;;;;;;5037020;28;20517;-76
2022/05/25 10:46:31;;;;;;;3.83;1.40;;;19.80;11.90;;;;;;5036475;28;20459;-77
2022/05/25 10:49:24;;;;;;;3.42;1.58;;;19.80;11.80;;;;;;5035327;28;20411;-77
2022/05/25 10:51:55;;;;;;;5.00;1.33;;;19.80;12.20;;;;;;5035197;28;20406;-77
2022/05/25 10:54:44;;;;;;;1.80;0.90;;;20.10;12.20;;;;;;5035976;28;20402;-77
2022/05/25 10:57:32;;;;;;;6.53;1.25;;;20.30;11.30;;;;;;5034732;28;20399;-77
2022/05/25 11:00:04;;;;;;;2.05;1.05;;;20.40;10.30;;;;;;5033142;28;20872;-77
2022/05/25 11:02:53;;;;;;;3.10;1.00;;;20.20;9.80;;;;;;5035320;28;20375;-78
2022/05/25 11:05:31;;;;;;;6.50;1.10;;;20.30;10.40;;;;;;5034553;28;20383;-75
2022/05/25 11:08:25;;;;;;;4.65;1.20;;;20.50;10.60;;;;;;5032127;28;20391;-77
2022/05/25 11:11:03;;;;;;;1.83;0.90;;;20.80;9.60;;;;;;5034261;28;20441;-79
2022/05/25 11:13:51;;;;;;;2.28;0.80;;;20.60;9.70;;;;;;5034743;28;20467;-78
2022/05/25 11:16:44;;;;;;;2.50;0.93;;;20.50;9.30;;;;;;5033869;28;20449;-78
2022/05/25 11:20:04;;;;;;;2.53;1.00;;;20.00;10.20;;;;;;5033177;28;20387;-78
2022/05/25 11:23:11;;;;;;;6.00;0.90;;;19.70;11.00;;;;;;5038433;28;20954;-78
2022/05/25 11:25:55;;;;;;;1.40;0.80;;;19.60;11.50;;;;;;4993915;28;20418;-78
2022/05/25 11:28:57;;;;;;;1.58;0.90;;;19.70;10.70;;;;;;5034640;28;20395;-78
2022/05/25 11:31:56;;;;;;;2.10;1.00;;;19.80;11.10;;;;;;5034326;28;20399;-77
2022/05/25 11:34:45;;;;;;;3.30;0.90;;;20.60;9.90;;;;;;5033487;28;20376;-77
2022/05/25 11:37:35;;;;;;;1.85;0.90;;;21.30;8.50;;;;;;5033263;28;20812;-77
2022/05/25 11:40:15;;;;;;;3.33;0.90;;;21.40;8.30;;;;;;5033801;28;20406;-77
2022/05/25 11:42:58;;;;;;;3.80;0.95;;;21.30;8.00;;;;;;5033870;28;20895;-77
2022/05/25 11:45:40;;;;;;;1.30;0.85;;;21.10;8.70;;;;;;5033463;28;20491;-76
2022/05/25 11:48:30;;;;;;;3.33;0.90;;;21.00;8.10;;;;;;5032423;28;20387;-77
2022/05/25 11:51:05;;;;;;;2.60;1.20;;;20.90;8.30;;;;;;5033839;28;20403;-76
2022/05/25 11:53:56;;;;;;;1.60;0.90;;;20.90;7.70;;;;;;5033850;28;20892;-77
2022/05/25 11:56:45;;;;;;;3.28;0.98;;;21.00;8.00;;;;;;5034587;28;20390;-77
2022/05/25 11:59:44;;;;;;;3.50;1.40;;;20.80;8.70;;;;;;5034080;28;20481;-77
2022/05/25 12:02:13;;;;;;;3.75;1.00;;;20.60;9.40;;;;;;5033263;28;20787;-77
2022/05/25 12:05:06;;;;;;;5.50;1.30;;;21.10;9.40;;;;;;5032945;28;20395;-77
2022/05/25 12:07:31;;;;;;;4.28;1.05;;;21.40;8.70;;;;;;5034829;28;20386;-76
2022/05/25 12:10:00;;;;;;;1.60;1.10;;;21.70;8.20;;;;;;5039561;28;20387;-77
2022/05/25 12:12:37;;;;;;;4.95;1.20;;;21.90;7.50;;;;;;5040505;28;20387;-77
2022/05/25 12:15:21;;;;;;;5.63;1.00;;;22.10;7.40;;;;;;5038152;28;20376;-76
2022/05/25 12:17:53;;;;;;;2.50;1.27;;;22.30;7.60;;;;;;5037707;28;20371;-75
2022/05/25 12:20:33;;;;;;;2.90;1.30;;;22.20;8.00;;;;;;5039869;28;20471;-77
2022/05/25 12:23:03;;;;;;;3.30;1.10;;;22.10;8.40;;;;;;5036910;28;20435;-77
2022/05/25 12:25:30;;;;;;;3.40;1.42;;;21.60;9.60;;;;;;5033137;28;20383;-76
2022/05/25 12:27:58;;;;;;;2.90;1.00;;;21.40;7.80;;;;;;5032594;28;20407;-76
2022/05/25 12:30:31;;;;;;;2.70;0.95;;;21.00;8.70;;;;;;5032456;28;20453;-76
2022/05/25 12:33:00;;;;;;;3.65;1.20;;;21.10;9.20;;;;;;5032263;28;20386;-79
2022/05/25 12:35:29;;;;;;;1.65;1.10;;;21.30;8.30;;;;;;5030641;28;20418;-77
2022/05/25 12:37:55;;;;;;;5.53;1.20;;;21.40;8.10;;;;;;5032251;28;20379;-77
2022/05/25 12:40:47;;;;;;;2.67;1.27;;;21.30;9.00;;;;;;5032193;28;20394;-77
2022/05/25 12:43:45;;;;;;;4.60;1.20;;;21.40;8.90;;;;;;5030307;28;20391;-77
2022/05/25 12:48:58;;;;;;;5.90;1.00;;;21.90;6.70;;;;;;5032153;28;20453;-77
2022/05/25 12:51:44;;;;;;;2.80;1.25;;;22.20;6.20;;;;;;5031602;28;20503;-77
2022/05/25 12:54:22;;;;;;;3.60;1.10;;;22.20;6.20;;;;;;5033285;28;20449;-77
2022/05/25 12:56:49;;;;;;;5.00;0.80;;;22.20;5.70;;;;;;5035838;28;20417;-78
2022/05/25 12:59:37;;;;;;;2.58;1.20;;;22.30;5.50;;;;;;5036422;28;20383;-77
2022/05/25 13:02:29;;;;;;;3.00;1.00;;;22.40;6.10;;;;;;5036593;28;20387;-79
2022/05/25 13:04:59;;;;;;;2.75;0.95;;;23.10;4.90;;;;;;5036229;28;20386;-79
2022/05/25 13:07:36;;;;;;;2.50;0.80;;;23.20;3.40;;;;;;5038286;28;20398;-79
2022/05/25 13:10:10;;;;;;;3.20;1.00;;;23.10;3.70;;;;;;5036439;28;20414;-79
2022/05/25 13:12:39;;;;;;;5.57;1.15;;;23.10;3.20;;;;;;5036045;28;20387;-79
2022/05/25 13:15:13;;;;;;;3.17;1.10;;;23.20;2.80;;;;;;5035637;28;20401;-79
2022/05/25 13:17:45;;;;;;;3.28;1.10;;;23.50;2.60;;;;;;5035024;28;20394;-78
2022/05/25 13:20:26;;;;;;;2.53;0.90;;;23.50;1.60;;;;;;5035846;28;20902;-79
2022/05/25 13:22:57;;;;;;;5.00;1.10;;;23.40;2.20;;;;;;5037459;28;20391;-78
2022/05/25 13:25:26;;;;;;;2.30;0.80;;;23.50;2.70;;;;;;5038217;28;20390;-79
2022/05/25 13:28:12;;;;;;;3.30;0.90;;;24.20;1.10;;;;;;5036367;28;20414;-79
2022/05/25 13:31:00;;;;;;;3.25;0.90;;;24.50;1.40;;;;;;5037980;28;20403;-78
2022/05/25 13:33:28;;;;;;;2.80;1.00;;;23.80;1.50;;;;;;5037240;28;20856;-79
2022/05/25 13:36:04;;;;;;;3.72;1.00;;;23.60;2.20;;;;;;5038207;28;20390;-78
2022/05/25 13:38:52;;;;;;;5.10;0.90;;;23.40;2.80;;;;;;5037351;28;20375;-79
2022/05/25 13:41:28;;;;;;;3.45;0.90;;;24.40;1.00;;;;;;5035660;28;20398;-79
2022/05/25 13:44:13;;;;;;;1.30;0.80;;;23.70;1.00;;;;;;5036708;28;20445;-79
2022/05/25 13:46:42;;;;;;;4.80;1.30;;;23.10;2.30;;;;;;5035917;28;20427;-79
2022/05/25 13:49:19;;;;;;;3.55;0.88;;;22.70;2.90;;;;;;5037915;28;20383;-79
2022/05/25 13:51:44;;;;;;;2.25;1.00;;;23.20;2.10;;;;;;5037590;28;20437;-78
2022/05/25 13:54:32;;;;;;;2.50;1.10;;;23.40;2.30;;;;;;5035859;28;20841;-79
2022/05/25 13:56:59;;;;;;;1.90;1.00;;;23.80;1.60;;;;;;5036791;28;20457;-79
2022/05/25 13:59:35;;;;;;;4.22;0.93;;;24.80;1.00;;;;;;5039472;28;20394;-79